Time;durP1;ratioP1;P1;durP2;ratioP2;P2;SDS_P1;SDS_P2;PMS_P1;PMS_P2;Temp;Humidity;BMP_temperature;BMP_pressure;BME280_temperature;BME280_humidity;BME280_pressure;Samples;Min_cycle;Max_cycle;Signal;HPM_P1;HPM_P2
2021/09/11 00:00:23;;;;;;;5.20;4.70;;;20.10;86.20;;;;;;5050331;28;20218;-78
2021/09/11 00:02:50;;;;;;;4.88;4.28;;;20.10;86.60;;;;;;5047860;28;20198;-78
2021/09/11 00:05:18;;;;;;;4.38;3.97;;;20.10;87.10;;;;;;5049964;28;20205;-78
2021/09/11 00:07:45;;;;;;;3.40;3.10;;;20.00;87.50;;;;;;5049718;28;20208;-78
2021/09/11 00:10:13;;;;;;;3.55;3.25;;;20.00;88.00;;;;;;5037006;28;20219;-78
2021/09/11 00:12:40;;;;;;;3.75;3.38;;;19.90;88.40;;;;;;5048750;28;20956;-78
2021/09/11 00:15:10;;;;;;;3.08;2.88;;;19.90;89.00;;;;;;5050083;28;20194;-78
2021/09/11 00:17:39;;;;;;;3.35;2.88;;;19.80;89.60;;;;;;5047709;28;20209;-78
2021/09/11 00:20:08;;;;;;;3.33;3.10;;;19.80;90.00;;;;;;5050266;28;20271;-78
2021/09/11 00:22:35;;;;;;;3.60;3.35;;;19.80;90.30;;;;;;5049905;28;20209;-78
2021/09/11 00:25:02;;;;;;;4.82;3.58;;;19.70;90.50;;;;;;5047903;28;20371;-78
2021/09/11 00:27:29;;;;;;;3.40;3.10;;;19.70;90.70;;;;;;5048713;28;20204;-78
2021/09/11 00:29:56;;;;;;;3.25;2.95;;;19.60;90.90;;;;;;5038015;28;20759;-78
2021/09/11 00:32:23;;;;;;;3.25;3.05;;;19.70;91.10;;;;;;5048371;28;20551;-78
2021/09/11 00:34:51;;;;;;;3.30;3.00;;;19.60;91.30;;;;;;5049927;28;20290;-78
2021/09/11 00:37:18;;;;;;;3.03;2.83;;;19.60;91.40;;;;;;5047550;28;20206;-78
2021/09/11 00:39:45;;;;;;;2.88;2.60;;;19.60;91.50;;;;;;5048837;28;20221;-78
2021/09/11 00:42:12;;;;;;;3.55;2.70;;;19.60;91.60;;;;;;5047034;28;20202;-79
2021/09/11 00:44:39;;;;;;;3.58;3.00;;;19.60;91.90;;;;;;5049641;28;20206;-78
2021/09/11 00:47:06;;;;;;;4.00;3.15;;;19.50;92.00;;;;;;5046963;28;20206;-78
2021/09/11 00:49:33;;;;;;;3.50;3.20;;;19.50;92.20;;;;;;5049299;28;20198;-78
2021/09/11 00:52:01;;;;;;;3.50;3.00;;;19.50;92.30;;;;;;5049440;28;20608;-78
2021/09/11 00:54:29;;;;;;;3.90;3.47;;;19.50;92.50;;;;;;5047999;28;20198;-78
2021/09/11 00:56:56;;;;;;;4.25;3.05;;;19.50;92.70;;;;;;5048367;28;20260;-78
2021/09/11 00:59:23;;;;;;;3.25;3.03;;;19.40;92.80;;;;;;5049425;28;20221;-79
2021/09/11 01:01:50;;;;;;;2.60;2.40;;;19.40;93.00;;;;;;5047403;28;20213;-78
2021/09/11 01:04:17;;;;;;;3.00;2.65;;;19.40;93.10;;;;;;5047438;28;20554;-78
2021/09/11 01:06:44;;;;;;;2.88;2.67;;;19.40;93.20;;;;;;5048435;28;20720;-78
2021/09/11 01:09:14;;;;;;;3.15;2.90;;;19.40;93.40;;;;;;5047167;28;20198;-78
2021/09/11 01:11:41;;;;;;;2.45;2.35;;;19.40;93.50;;;;;;5047732;28;20202;-78
2021/09/11 01:14:08;;;;;;;2.63;2.42;;;19.40;93.60;;;;;;5049559;28;20711;-79
2021/09/11 01:16:35;;;;;;;2.63;2.42;;;19.40;93.70;;;;;;5048149;28;20198;-78
2021/09/11 01:19:02;;;;;;;3.50;3.20;;;19.40;93.80;;;;;;5049530;28;20217;-77
2021/09/11 01:21:29;;;;;;;3.00;2.80;;;19.40;93.90;;;;;;5046968;28;20197;-77
2021/09/11 01:23:57;;;;;;;4.03;3.47;;;19.40;94.10;;;;;;5048034;28;20201;-79
2021/09/11 01:26:24;;;;;;;3.50;3.20;;;19.30;94.40;;;;;;5047405;28;20617;-78
2021/09/11 01:28:51;;;;;;;3.50;3.20;;;19.20;94.50;;;;;;5049875;28;20190;-78
2021/09/11 01:31:18;;;;;;;4.30;3.90;;;19.20;94.70;;;;;;5048611;28;20751;-78
2021/09/11 01:33:44;;;;;;;3.58;3.28;;;19.10;95.00;;;;;;5048381;28;20209;-78
2021/09/11 01:36:12;;;;;;;3.97;3.67;;;19.10;95.20;;;;;;5046890;28;20206;-78
2021/09/11 01:38:39;;;;;;;5.18;4.00;;;19.10;95.40;;;;;;5049182;28;20232;-78
2021/09/11 01:41:07;;;;;;;4.05;3.63;;;19.00;95.80;;;;;;5045852;28;20575;-78
2021/09/11 01:43:35;;;;;;;4.38;3.53;;;18.90;96.10;;;;;;5047762;28;20201;-78
2021/09/11 01:46:02;;;;;;;4.78;3.95;;;18.90;96.20;;;;;;5047004;28;20509;-78
2021/09/11 01:48:29;;;;;;;3.75;3.45;;;18.90;96.50;;;;;;5048145;28;20208;-78
2021/09/11 01:50:57;;;;;;;4.82;3.70;;;18.90;96.70;;;;;;5048354;28;20202;-78
2021/09/11 01:53:24;;;;;;;3.70;3.40;;;18.90;96.80;;;;;;5048500;28;20211;-78
2021/09/11 01:55:51;;;;;;;4.00;3.70;;;18.80;96.90;;;;;;5047411;28;20212;-79
2021/09/11 01:58:19;;;;;;;4.80;3.08;;;18.80;97.10;;;;;;5046837;28;20205;-77
2021/09/11 02:00:46;;;;;;;5.05;3.60;;;18.80;97.10;;;;;;5048745;28;20770;-77
2021/09/11 02:03:13;;;;;;;3.95;3.55;;;18.70;97.40;;;;;;5048645;28;20704;-79
2021/09/11 02:05:40;;;;;;;3.72;3.42;;;18.70;97.60;;;;;;5050751;28;20687;-79
2021/09/11 02:08:08;;;;;;;3.25;3.00;;;18.70;97.70;;;;;;5048641;28;20650;-79
2021/09/11 02:10:35;;;;;;;3.45;3.15;;;18.70;97.80;;;;;;5042153;28;20660;-79
2021/09/11 02:13:02;;;;;;;3.22;2.92;;;18.60;97.80;;;;;;5049438;28;20247;-77
2021/09/11 02:15:31;;;;;;;3.97;3.47;;;18.70;97.90;;;;;;5050996;28;20208;-77
2021/09/11 02:17:58;;;;;;;3.38;3.08;;;18.60;98.00;;;;;;5051398;28;20204;-77
2021/09/11 02:20:25;;;;;;;3.30;3.10;;;18.60;98.00;;;;;;5051983;28;20236;-77
2021/09/11 02:22:52;;;;;;;3.67;3.35;;;18.60;98.00;;;;;;5051723;28;20207;-77
2021/09/11 02:25:19;;;;;;;4.68;3.63;;;18.60;98.20;;;;;;5050353;28;20215;-77
2021/09/11 02:27:46;;;;;;;3.60;3.30;;;18.50;98.30;;;;;;5050925;28;20206;-77
2021/09/11 02:30:13;;;;;;;3.20;2.90;;;18.50;98.40;;;;;;5052400;28;20192;-77
2021/09/11 02:32:41;;;;;;;3.55;3.22;;;18.50;98.40;;;;;;5051413;28;20201;-79
2021/09/11 02:35:09;;;;;;;7.05;3.15;;;18.50;98.50;;;;;;5050747;28;20208;-79
2021/09/11 02:37:37;;;;;;;2.97;2.78;;;18.40;98.60;;;;;;5051299;28;20200;-78
2021/09/11 02:40:05;;;;;;;3.55;3.25;;;18.40;98.60;;;;;;5050208;28;20224;-77
2021/09/11 02:42:32;;;;;;;3.58;2.90;;;18.40;98.80;;;;;;5050947;28;20201;-77
2021/09/11 02:44:59;;;;;;;3.20;3.00;;;18.40;98.80;;;;;;5050590;28;20214;-77
2021/09/11 02:47:25;;;;;;;3.17;2.87;;;18.40;98.90;;;;;;5050673;28;20206;-77
2021/09/11 02:49:54;;;;;;;3.90;3.20;;;18.40;98.90;;;;;;5051503;28;20676;-77
2021/09/11 02:52:21;;;;;;;3.15;2.85;;;18.40;99.00;;;;;;5051007;28;20258;-77
2021/09/11 02:54:47;;;;;;;2.83;2.60;;;18.40;99.10;;;;;;5049451;28;20212;-78
2021/09/11 02:57:14;;;;;;;3.22;2.97;;;18.40;99.20;;;;;;5048391;28;20211;-77
2021/09/11 02:59:41;;;;;;;3.83;3.08;;;18.40;99.30;;;;;;5051359;28;20217;-77
2021/09/11 03:02:08;;;;;;;3.35;3.05;;;18.30;99.30;;;;;;5050618;28;20212;-77
2021/09/11 03:04:35;;;;;;;3.47;3.17;;;18.30;99.40;;;;;;5051359;28;20206;-77
2021/09/11 03:07:04;;;;;;;3.03;2.70;;;18.40;99.60;;;;;;5075252;28;20675;-77
2021/09/11 03:09:31;;;;;;;3.42;3.15;;;18.30;99.60;;;;;;5036953;28;20199;-77
2021/09/11 03:11:57;;;;;;;4.03;3.33;;;18.30;99.80;;;;;;5050143;28;20243;-77
2021/09/11 03:14:24;;;;;;;3.45;3.20;;;18.30;99.90;;;;;;5050621;28;20213;-77
2021/09/11 03:16:51;;;;;;;3.60;3.30;;;18.30;99.90;;;;;;5050843;28;20200;-77
2021/09/11 03:19:18;;;;;;;3.00;2.78;;;18.30;99.90;;;;;;5049795;28;20229;-77
2021/09/11 03:21:45;;;;;;;3.08;2.88;;;18.30;99.90;;;;;;5051197;28;20199;-77
2021/09/11 03:24:14;;;;;;;3.70;3.40;;;18.20;99.90;;;;;;5048451;28;20212;-77
2021/09/11 03:26:40;;;;;;;3.60;3.30;;;18.20;99.90;;;;;;5048351;28;20200;-77
2021/09/11 03:29:07;;;;;;;3.17;2.92;;;18.20;99.90;;;;;;5049002;28;20570;-77
2021/09/11 03:31:34;;;;;;;4.50;4.10;;;18.20;99.90;;;;;;5049869;28;20566;-77
2021/09/11 03:34:01;;;;;;;4.20;3.90;;;18.20;99.90;;;;;;5051021;28;20193;-77
2021/09/11 03:36:28;;;;;;;3.65;3.35;;;18.20;99.90;;;;;;5048518;28;20199;-77
2021/09/11 03:38:55;;;;;;;3.28;3.05;;;18.20;99.90;;;;;;5049441;28;20295;-77
2021/09/11 03:41:23;;;;;;;3.28;2.97;;;18.10;99.90;;;;;;5047842;28;20258;-77
2021/09/11 03:43:50;;;;;;;3.58;3.28;;;18.20;99.90;;;;;;5049736;28;20309;-77
2021/09/11 03:46:18;;;;;;;3.38;2.92;;;18.20;99.90;;;;;;5049771;28;20566;-77
2021/09/11 03:48:44;;;;;;;3.50;3.20;;;18.20;99.90;;;;;;5049112;28;20241;-77
2021/09/11 03:51:11;;;;;;;4.20;3.50;;;18.10;99.90;;;;;;5050153;28;20257;-77
2021/09/11 03:53:38;;;;;;;4.53;4.10;;;18.10;99.90;;;;;;5049551;28;20668;-77
2021/09/11 03:56:05;;;;;;;5.03;4.53;;;18.00;99.90;;;;;;5048245;28;20660;-77
2021/09/11 03:58:34;;;;;;;7.03;4.40;;;18.00;99.90;;;;;;5049624;28;20220;-77
2021/09/11 04:01:02;;;;;;;5.00;3.90;;;17.90;99.90;;;;;;5048476;28;20229;-77
2021/09/11 04:03:29;;;;;;;5.53;3.77;;;17.90;99.90;;;;;;5049715;28;20282;-77
2021/09/11 04:05:57;;;;;;;5.67;4.20;;;17.80;99.90;;;;;;5048365;28;20211;-77
2021/09/11 04:08:24;;;;;;;4.90;4.13;;;17.80;99.90;;;;;;5047897;28;20201;-77
2021/09/11 04:10:51;;;;;;;4.53;3.83;;;17.80;99.90;;;;;;5047270;28;20210;-77
2021/09/11 04:13:20;;;;;;;4.63;4.23;;;17.80;99.90;;;;;;5047705;28;20260;-77
2021/09/11 04:15:48;;;;;;;3.67;3.35;;;17.80;99.90;;;;;;5048336;28;20265;-77
2021/09/11 04:18:15;;;;;;;3.20;3.00;;;17.80;99.90;;;;;;5041290;28;20218;-78
2021/09/11 04:20:42;;;;;;;4.33;3.57;;;17.80;99.90;;;;;;5049561;28;20215;-78
2021/09/11 04:23:09;;;;;;;4.17;3.63;;;17.80;99.90;;;;;;5047868;28;20206;-78
2021/09/11 04:25:36;;;;;;;3.60;3.30;;;17.80;99.90;;;;;;5046778;28;20206;-77
2021/09/11 04:28:03;;;;;;;3.13;2.93;;;17.80;99.90;;;;;;5048900;28;20253;-78
2021/09/11 04:30:30;;;;;;;3.60;3.30;;;17.80;99.90;;;;;;5049477;28;20301;-77
2021/09/11 04:32:58;;;;;;;2.50;2.30;;;17.80;99.90;;;;;;5047450;28;20209;-77
2021/09/11 04:35:25;;;;;;;3.00;2.80;;;17.90;99.90;;;;;;5049863;28;20203;-78
2021/09/11 04:37:52;;;;;;;3.00;2.57;;;17.90;99.90;;;;;;5047894;28;20594;-78
2021/09/11 04:40:19;;;;;;;2.90;2.70;;;17.90;99.90;;;;;;5049220;28;20215;-78
2021/09/11 04:42:46;;;;;;;2.80;2.60;;;18.00;99.90;;;;;;5047669;28;20209;-78
2021/09/11 04:45:13;;;;;;;3.00;2.80;;;18.00;99.90;;;;;;5048447;28;20222;-78
2021/09/11 04:47:40;;;;;;;3.33;2.78;;;18.00;99.90;;;;;;5049196;28;20190;-78
2021/09/11 04:50:09;;;;;;;3.33;3.03;;;18.10;99.90;;;;;;5049424;28;20664;-78
2021/09/11 04:52:36;;;;;;;2.90;2.70;;;18.10;99.90;;;;;;5048870;28;20190;-78
2021/09/11 04:55:03;;;;;;;3.60;3.10;;;18.10;99.90;;;;;;5048679;28;20487;-77
2021/09/11 04:57:30;;;;;;;3.60;3.20;;;18.10;99.90;;;;;;5048222;28;20233;-77
2021/09/11 04:59:57;;;;;;;3.35;3.05;;;18.20;99.90;;;;;;5047598;28;20209;-78
2021/09/11 05:02:24;;;;;;;2.87;2.67;;;18.20;99.90;;;;;;5047259;28;20210;-77
2021/09/11 05:04:50;;;;;;;2.83;2.63;;;18.30;99.90;;;;;;5049322;28;20294;-77
2021/09/11 05:07:19;;;;;;;3.27;2.97;;;18.40;99.90;;;;;;5047926;28;20215;-77
2021/09/11 05:09:46;;;;;;;3.55;3.25;;;18.40;99.90;;;;;;5046532;28;20190;-77
2021/09/11 05:12:12;;;;;;;3.30;3.10;;;18.50;99.90;;;;;;5047018;28;20236;-78
2021/09/11 05:14:39;;;;;;;3.25;2.95;;;18.60;99.90;;;;;;5049134;28;20237;-77
2021/09/11 05:17:06;;;;;;;3.30;3.10;;;18.60;99.90;;;;;;5048563;28;20220;-77
2021/09/11 05:19:33;;;;;;;3.03;2.73;;;18.70;99.90;;;;;;5048390;28;20199;-77
2021/09/11 05:22:00;;;;;;;3.30;3.00;;;18.70;99.90;;;;;;5047108;28;20222;-78
2021/09/11 05:24:28;;;;;;;2.80;2.60;;;18.80;99.90;;;;;;5046516;28;20301;-78
2021/09/11 05:26:55;;;;;;;3.40;3.15;;;18.90;99.90;;;;;;5048004;28;20209;-77
2021/09/11 05:29:22;;;;;;;3.38;3.08;;;18.90;99.90;;;;;;5047537;28;20213;-77
2021/09/11 05:31:49;;;;;;;2.90;2.70;;;18.90;99.90;;;;;;5048322;28;20259;-78
2021/09/11 05:34:17;;;;;;;3.60;3.30;;;19.00;99.90;;;;;;5047290;28;20302;-77
2021/09/11 05:36:46;;;;;;;3.88;3.20;;;19.10;99.90;;;;;;5040524;28;20208;-77
2021/09/11 05:39:13;;;;;;;3.10;2.90;;;19.20;99.90;;;;;;5049267;28;20197;-77
2021/09/11 05:41:41;;;;;;;4.50;4.10;;;19.20;99.90;;;;;;5050315;28;20224;-78
2021/09/11 05:44:08;;;;;;;4.70;3.67;;;19.20;99.90;;;;;;5051995;28;20216;-77
2021/09/11 05:46:35;;;;;;;3.90;3.58;;;19.20;99.90;;;;;;5052059;28;20205;-78
2021/09/11 05:49:02;;;;;;;3.60;3.30;;;19.30;99.90;;;;;;5051623;28;20211;-78
2021/09/11 05:51:29;;;;;;;3.13;2.92;;;19.40;99.90;;;;;;5052454;28;20198;-77
2021/09/11 05:53:56;;;;;;;3.58;3.33;;;19.50;99.90;;;;;;5053008;28;20561;-77
2021/09/11 05:56:22;;;;;;;3.13;2.85;;;19.50;99.90;;;;;;5049569;28;20287;-77
2021/09/11 05:58:51;;;;;;;3.63;3.33;;;19.70;99.90;;;;;;5077054;28;20592;-77
2021/09/11 06:01:18;;;;;;;4.13;3.75;;;19.80;99.90;;;;;;5050241;28;20226;-77
2021/09/11 06:03:44;;;;;;;4.18;3.78;;;20.20;99.90;;;;;;5051191;28;20210;-78
2021/09/11 06:06:11;;;;;;;5.22;3.83;;;20.90;99.70;;;;;;5050938;28;20213;-77
2021/09/11 06:08:38;;;;;;;5.57;3.78;;;21.60;98.90;;;;;;5045067;28;20248;-78
2021/09/11 06:11:05;;;;;;;3.33;3.05;;;22.20;97.90;;;;;;5043490;28;20570;-78
2021/09/11 06:13:32;;;;;;;3.97;3.53;;;22.90;97.10;;;;;;5050435;28;20317;-78
2021/09/11 06:16:02;;;;;;;3.22;2.92;;;23.40;96.10;;;;;;5051813;28;20206;-78
2021/09/11 06:18:29;;;;;;;3.13;2.92;;;23.80;95.40;;;;;;5039010;28;20216;-77
2021/09/11 06:20:56;;;;;;;2.85;2.65;;;24.10;94.90;;;;;;5050182;28;20213;-78
2021/09/11 06:23:23;;;;;;;3.25;3.05;;;24.40;94.50;;;;;;5052110;28;20604;-78
2021/09/11 06:25:50;;;;;;;3.95;3.65;;;24.70;94.00;;;;;;5050678;28;20217;-78
2021/09/11 06:28:17;;;;;;;3.60;3.35;;;24.90;93.30;;;;;;5039357;28;20208;-78
2021/09/11 06:30:45;;;;;;;4.82;4.43;;;25.10;92.80;;;;;;5051641;28;20527;-78
2021/09/11 06:33:13;;;;;;;5.03;4.53;;;25.30;92.10;;;;;;5040918;28;20202;-78
2021/09/11 06:35:40;;;;;;;5.22;4.72;;;25.60;91.40;;;;;;5050216;28;20198;-78
2021/09/11 06:38:07;;;;;;;4.40;4.07;;;25.90;90.50;;;;;;5041665;28;20276;-78
2021/09/11 06:40:34;;;;;;;4.55;4.00;;;26.50;89.00;;;;;;5050133;28;20512;-78
2021/09/11 06:43:01;;;;;;;3.58;3.38;;;27.40;85.70;;;;;;5049323;28;20206;-79
2021/09/11 06:45:28;;;;;;;4.88;4.32;;;28.50;81.50;;;;;;5051634;28;20287;-79
2021/09/11 06:47:55;;;;;;;3.97;3.67;;;29.60;76.60;;;;;;5049514;28;20193;-79
2021/09/11 06:50:23;;;;;;;4.05;3.70;;;30.70;72.30;;;;;;5049117;28;20213;-80
2021/09/11 06:52:52;;;;;;;3.50;3.20;;;31.60;68.00;;;;;;5050515;28;20570;-79
2021/09/11 06:55:19;;;;;;;3.70;3.40;;;32.60;64.50;;;;;;5050703;28;20210;-80
2021/09/11 06:57:46;;;;;;;3.47;3.17;;;33.50;61.00;;;;;;5049110;28;20212;-80
2021/09/11 07:00:14;;;;;;;3.63;3.33;;;34.40;58.30;;;;;;5051143;28;20210;-80
2021/09/11 07:02:40;;;;;;;3.65;3.42;;;35.40;55.80;;;;;;5049312;28;20800;-80
2021/09/11 07:05:08;;;;;;;4.05;3.75;;;36.20;53.30;;;;;;5051448;28;20654;-80
2021/09/11 07:07:37;;;;;;;4.15;3.38;;;37.10;50.80;;;;;;5049843;28;20463;-80
2021/09/11 07:10:06;;;;;;;4.00;3.70;;;37.60;48.90;;;;;;5036575;28;20221;-79
2021/09/11 07:12:33;;;;;;;4.18;3.88;;;38.40;47.50;;;;;;5049872;28;20756;-78
2021/09/11 07:15:01;;;;;;;4.40;4.05;;;39.10;45.70;;;;;;5049663;28;20205;-78
2021/09/11 07:17:29;;;;;;;4.13;3.75;;;40.00;44.20;;;;;;5048846;28;20626;-78
2021/09/11 07:19:56;;;;;;;5.80;4.10;;;40.70;42.60;;;;;;5048484;28;20201;-78
2021/09/11 07:22:23;;;;;;;4.00;3.70;;;41.30;41.30;;;;;;5050151;28;20210;-79
2021/09/11 07:24:52;;;;;;;4.60;4.20;;;42.00;40.10;;;;;;5048882;28;20229;-78
2021/09/11 07:27:19;;;;;;;4.47;4.07;;;42.70;38.60;;;;;;5048420;28;20209;-79
2021/09/11 07:29:46;;;;;;;5.22;4.28;;;43.30;37.40;;;;;;5048928;28;20219;-78
2021/09/11 07:32:13;;;;;;;5.00;4.60;;;43.60;36.40;;;;;;5048536;28;20197;-79
2021/09/11 07:34:40;;;;;;;4.93;4.63;;;44.00;35.60;;;;;;5050483;28;20193;-79
2021/09/11 07:37:07;;;;;;;4.55;4.25;;;44.60;34.90;;;;;;5049855;28;20201;-79
2021/09/11 07:39:34;;;;;;;4.93;4.32;;;45.00;33.90;;;;;;5048142;28;20201;-79
2021/09/11 07:42:03;;;;;;;5.35;4.95;;;45.50;33.50;;;;;;5049362;28;20224;-79
2021/09/11 07:44:29;;;;;;;7.88;5.22;;;45.80;32.50;;;;;;5049408;28;20220;-79
2021/09/11 07:46:56;;;;;;;5.85;5.35;;;46.30;31.70;;;;;;5048849;28;20262;-79
2021/09/11 07:49:23;;;;;;;5.43;5.03;;;46.70;31.00;;;;;;5049337;28;20197;-79
2021/09/11 07:51:51;;;;;;;5.18;4.88;;;47.10;30.40;;;;;;5050066;28;20240;-79
2021/09/11 07:54:18;;;;;;;5.20;4.80;;;47.50;29.90;;;;;;5049916;28;20235;-80
2021/09/11 07:56:45;;;;;;;6.32;5.60;;;47.80;29.50;;;;;;5049417;28;20225;-79
2021/09/11 07:59:13;;;;;;;7.40;5.75;;;48.20;29.10;;;;;;5050124;28;20205;-80
2021/09/11 08:01:40;;;;;;;4.97;4.68;;;48.60;28.70;;;;;;5047263;28;20225;-79
2021/09/11 08:04:07;;;;;;;5.68;5.28;;;49.00;28.40;;;;;;5048887;28;20205;-79
2021/09/11 08:06:34;;;;;;;6.25;5.65;;;49.40;27.90;;;;;;5050087;28;20212;-79
2021/09/11 08:09:01;;;;;;;6.10;5.70;;;49.70;27.40;;;;;;5046018;28;20206;-79
2021/09/11 08:11:28;;;;;;;5.80;5.30;;;49.90;27.20;;;;;;5046115;28;20197;-80
2021/09/11 08:13:55;;;;;;;5.15;4.78;;;50.20;27.00;;;;;;5049791;28;20255;-80
2021/09/11 08:16:24;;;;;;;5.80;5.40;;;50.60;26.70;;;;;;5047853;28;20708;-80
2021/09/11 08:18:50;;;;;;;6.20;5.80;;;51.00;26.40;;;;;;5050285;28;20221;-80
2021/09/11 08:21:17;;;;;;;5.90;5.40;;;51.50;26.00;;;;;;5049030;28;20220;-79
2021/09/11 08:23:45;;;;;;;5.85;5.22;;;52.00;25.70;;;;;;5048837;28;20209;-79
2021/09/11 08:26:12;;;;;;;6.40;6.00;;;52.40;25.30;;;;;;5046208;28;20233;-80
2021/09/11 08:28:39;;;;;;;6.43;6.03;;;52.70;25.00;;;;;;5048283;28;20205;-80
2021/09/11 08:31:06;;;;;;;7.53;6.95;;;52.90;24.60;;;;;;5049290;28;20221;-80
2021/09/11 08:33:34;;;;;;;6.20;5.80;;;53.10;24.20;;;;;;5047943;28;20201;-79
2021/09/11 08:36:01;;;;;;;7.07;6.50;;;53.30;24.20;;;;;;5049121;28;20561;-79
2021/09/11 08:38:28;;;;;;;7.40;6.75;;;53.60;23.90;;;;;;5049406;28;20539;-79
2021/09/11 08:40:57;;;;;;;6.57;6.07;;;53.80;23.70;;;;;;5047802;28;20205;-79
2021/09/11 08:43:24;;;;;;;6.72;6.13;;;53.80;23.60;;;;;;5048685;28;20196;-79
2021/09/11 08:45:51;;;;;;;6.15;5.65;;;54.00;23.50;;;;;;5048981;28;20198;-79
2021/09/11 08:48:18;;;;;;;7.30;6.30;;;54.30;23.30;;;;;;5047522;28;20665;-79
2021/09/11 08:50:46;;;;;;;7.82;6.03;;;54.70;23.20;;;;;;5049119;28;20657;-80
2021/09/11 08:53:13;;;;;;;6.80;6.20;;;54.90;23.00;;;;;;5048931;28;20197;-80
2021/09/11 08:55:40;;;;;;;7.15;6.47;;;55.10;22.70;;;;;;5047930;28;20201;-80
2021/09/11 08:58:09;;;;;;;7.43;6.78;;;55.30;22.60;;;;;;5048963;28;20189;-80
2021/09/11 09:00:38;;;;;;;7.10;6.60;;;55.60;22.40;;;;;;5041624;28;20201;-80
2021/09/11 09:03:30;;;;;;;6.72;6.32;;;55.80;22.20;;;;;;5046543;28;20252;-80
2021/09/11 09:06:14;;;;;;;7.40;6.80;;;56.00;22.20;;;;;;5049050;28;20201;-80
2021/09/11 09:08:41;;;;;;;7.18;6.75;;;56.00;21.80;;;;;;5049277;28;20223;-80
2021/09/11 09:11:21;;;;;;;7.55;6.82;;;56.40;21.70;;;;;;5045547;28;20201;-81
2021/09/11 09:13:53;;;;;;;7.15;6.65;;;56.70;21.40;;;;;;5055939;28;20609;-80
2021/09/11 09:16:21;;;;;;;7.80;7.20;;;56.80;21.30;;;;;;5054316;28;20204;-81
2021/09/11 09:18:49;;;;;;;7.53;6.93;;;57.00;21.10;;;;;;5056457;28;20215;-80
2021/09/11 09:21:19;;;;;;;8.23;7.60;;;57.10;21.00;;;;;;5053962;28;20192;-80
2021/09/11 09:23:47;;;;;;;6.90;6.40;;;56.90;20.90;;;;;;5056512;28;20201;-80
2021/09/11 09:26:14;;;;;;;7.30;6.80;;;56.80;21.00;;;;;;5053166;28;20309;-80
2021/09/11 09:28:41;;;;;;;6.30;6.00;;;56.70;21.00;;;;;;5056602;28;20569;-80
2021/09/11 09:31:10;;;;;;;6.93;6.28;;;56.90;21.20;;;;;;5054120;28;20208;-80
2021/09/11 09:33:39;;;;;;;7.40;6.90;;;57.10;21.10;;;;;;5054060;28;20209;-80
2021/09/11 09:36:06;;;;;;;8.05;7.45;;;57.30;21.00;;;;;;5054421;28;20204;-80
2021/09/11 09:38:35;;;;;;;8.25;7.55;;;57.70;20.90;;;;;;5055744;28;20596;-80
2021/09/11 09:41:11;;;;;;;7.85;7.35;;;57.70;20.80;;;;;;5054155;28;20596;-80
2021/09/11 09:43:40;;;;;;;7.53;7.07;;;57.50;20.60;;;;;;5054156;28;20231;-80
2021/09/11 09:46:09;;;;;;;7.55;6.95;;;57.50;20.50;;;;;;5055357;28;20193;-80
2021/09/11 09:48:36;;;;;;;6.40;6.10;;;57.50;20.50;;;;;;5053603;28;20275;-81
2021/09/11 09:51:04;;;;;;;6.82;6.30;;;57.80;20.50;;;;;;5055246;28;20233;-80
2021/09/11 09:53:31;;;;;;;6.93;6.53;;;57.90;20.40;;;;;;5053738;28;20193;-80
2021/09/11 09:56:00;;;;;;;6.47;6.15;;;58.00;20.10;;;;;;5054051;28;20216;-80
2021/09/11 09:58:27;;;;;;;6.70;6.40;;;58.20;20.10;;;;;;5053551;28;20217;-80
2021/09/11 10:00:55;;;;;;;6.60;6.03;;;58.40;19.90;;;;;;5053183;28;20216;-80
2021/09/11 10:03:22;;;;;;;6.88;6.55;;;58.40;19.60;;;;;;5054447;28;20235;-80
2021/09/11 10:05:53;;;;;;;6.22;5.93;;;58.50;19.60;;;;;;5055308;28;20726;-80
2021/09/11 10:08:21;;;;;;;6.32;5.93;;;58.50;19.60;;;;;;5055282;28;20196;-80
2021/09/11 10:10:50;;;;;;;6.95;6.55;;;58.80;19.60;;;;;;5054049;28;20205;-80
2021/09/11 10:13:22;;;;;;;7.65;7.25;;;58.40;19.50;;;;;;5052756;28;20246;-80
2021/09/11 10:15:54;;;;;;;7.43;7.03;;;57.70;19.80;;;;;;5053661;28;20213;-80
2021/09/11 10:18:41;;;;;;;8.07;7.57;;;57.10;20.00;;;;;;5053375;28;20668;-80
2021/09/11 10:21:14;;;;;;;6.65;6.28;;;56.80;20.10;;;;;;5053878;28;20619;-80
2021/09/11 10:23:41;;;;;;;6.88;6.47;;;55.90;20.50;;;;;;5052231;28;20661;-80
2021/09/11 10:26:43;;;;;;;6.40;6.00;;;54.50;21.00;;;;;;5051271;28;20193;-79
2021/09/11 10:29:55;;;;;;;5.38;5.07;;;53.30;21.70;;;;;;5052573;28;20204;-79
2021/09/11 10:32:49;;;;;;;5.72;5.43;;;53.50;21.60;;;;;;5051314;28;20198;-80
2021/09/11 10:35:21;;;;;;;7.00;6.50;;;53.10;21.70;;;;;;5051513;28;20224;-79
2021/09/11 10:37:49;;;;;;;6.15;5.65;;;52.20;22.10;;;;;;5051745;28;20228;-79
2021/09/11 10:40:31;;;;;;;7.45;5.82;;;51.50;22.30;;;;;;5051478;28;20198;-79
2021/09/11 10:43:09;;;;;;;5.38;5.03;;;50.40;22.60;;;;;;5049082;28;20228;-79
2021/09/11 10:45:44;;;;;;;5.90;5.50;;;50.30;22.90;;;;;;5049940;28;20312;-79
2021/09/11 10:48:47;;;;;;;5.95;5.43;;;50.30;22.90;;;;;;5041272;28;20203;-79
2021/09/11 10:51:20;;;;;;;5.40;5.00;;;50.50;22.70;;;;;;5048009;28;20209;-79
2021/09/11 10:54:04;;;;;;;5.38;5.07;;;49.50;23.00;;;;;;5051117;28;20190;-79
2021/09/11 10:56:34;;;;;;;5.07;4.78;;;48.30;23.60;;;;;;5048854;28;20193;-79
2021/09/11 10:59:32;;;;;;;5.32;5.03;;;47.90;24.10;;;;;;5044748;28;20236;-79
2021/09/11 11:02:06;;;;;;;5.10;4.80;;;48.60;23.90;;;;;;5049996;28;20577;-79
2021/09/11 11:04:35;;;;;;;4.43;4.22;;;49.70;23.50;;;;;;5049521;28;20543;-79
2021/09/11 11:07:04;;;;;;;4.80;4.60;;;50.50;23.00;;;;;;5049792;28;20204;-79
2021/09/11 11:09:39;;;;;;;3.83;3.72;;;50.00;22.90;;;;;;5037142;28;20198;-79
2021/09/11 11:12:07;;;;;;;5.10;4.80;;;48.80;23.30;;;;;;5049549;28;20228;-79
2021/09/11 11:14:44;;;;;;;4.78;4.45;;;47.60;24.00;;;;;;5050945;28;20201;-78
2021/09/11 11:17:12;;;;;;;5.05;4.75;;;46.40;24.70;;;;;;5050875;28;20196;-79
2021/09/11 11:19:43;;;;;;;4.30;4.10;;;45.30;25.40;;;;;;5049786;28;20216;-79
2021/09/11 11:22:13;;;;;;;4.75;4.35;;;44.30;26.00;;;;;;5049253;28;20221;-78
2021/09/11 11:24:42;;;;;;;5.43;5.03;;;43.60;26.60;;;;;;5048755;28;20209;-77
2021/09/11 11:27:11;;;;;;;8.88;4.60;;;42.80;28.20;;;;;;5049249;28;20802;-78
2021/09/11 11:29:38;;;;;;;5.00;4.70;;;42.00;29.90;;;;;;5047574;28;20217;-77
2021/09/11 11:32:07;;;;;;;7.43;4.75;;;41.20;31.00;;;;;;5049083;28;20198;-77
2021/09/11 11:34:34;;;;;;;5.57;4.90;;;40.40;32.90;;;;;;5050466;28;20190;-77
2021/09/11 11:37:05;;;;;;;3.75;3.53;;;39.30;34.90;;;;;;5048353;28;20205;-78
2021/09/11 11:39:34;;;;;;;2.83;2.72;;;38.00;36.10;;;;;;5049913;28;20201;-77
2021/09/11 11:42:04;;;;;;;4.65;4.25;;;37.20;37.30;;;;;;5048521;28;20216;-77
2021/09/11 11:44:33;;;;;;;4.40;4.00;;;36.60;38.00;;;;;;5049295;28;20298;-77
2021/09/11 11:47:09;;;;;;;3.65;3.35;;;35.80;39.40;;;;;;5050197;28;20197;-79
2021/09/11 11:49:38;;;;;;;3.45;3.15;;;34.80;40.30;;;;;;5050594;28;20197;-78
2021/09/11 11:52:07;;;;;;;2.83;2.63;;;34.10;41.30;;;;;;5049947;28;20200;-79
2021/09/11 11:54:36;;;;;;;4.93;4.00;;;33.60;42.60;;;;;;5048084;28;20216;-78
2021/09/11 11:57:09;;;;;;;3.60;3.40;;;32.90;44.90;;;;;;5048063;28;20202;-77
2021/09/11 11:59:37;;;;;;;3.17;2.97;;;32.40;45.80;;;;;;5082050;28;20672;-77
2021/09/11 12:02:24;;;;;;;2.63;2.53;;;31.90;46.30;;;;;;5042539;28;20194;-77
2021/09/11 12:04:53;;;;;;;2.83;2.72;;;31.50;46.80;;;;;;5059895;28;20267;-77
2021/09/11 12:07:29;;;;;;;2.30;2.20;;;31.30;47.10;;;;;;5049993;28;20627;-77
2021/09/11 12:10:00;;;;;;;2.28;2.17;;;31.20;47.40;;;;;;5047529;28;20566;-78
2021/09/11 12:12:43;;;;;;;2.45;2.35;;;31.10;47.90;;;;;;5048915;28;20694;-77
2021/09/11 12:15:12;;;;;;;2.55;2.45;;;31.00;48.50;;;;;;5037885;28;20666;-78
2021/09/11 12:17:54;;;;;;;3.08;2.90;;;31.00;48.40;;;;;;5047451;28;20604;-77
2021/09/11 12:20:24;;;;;;;3.05;2.80;;;30.80;48.50;;;;;;5048573;28;20269;-78
2021/09/11 12:23:13;;;;;;;3.75;3.45;;;30.70;48.70;;;;;;5047911;28;20240;-77
2021/09/11 12:26:02;;;;;;;4.55;4.15;;;30.40;49.20;;;;;;5048316;28;20226;-77
2021/09/11 12:28:43;;;;;;;10.73;5.90;;;30.00;50.50;;;;;;4998069;28;20215;-77
2021/09/11 12:31:22;;;;;;;7.75;4.82;;;29.60;52.50;;;;;;5007449;28;20203;-77
2021/09/11 12:33:51;;;;;;;8.48;6.20;;;29.10;53.60;;;;;;5007843;28;20211;-78
2021/09/11 12:36:29;;;;;;;9.05;6.03;;;28.60;55.10;;;;;;4991109;28;21544;-77
2021/09/11 12:38:59;;;;;;;6.32;5.72;;;28.30;56.20;;;;;;4991321;28;20207;-77
2021/09/11 12:41:27;;;;;;;8.88;6.50;;;28.00;56.70;;;;;;5006184;28;20908;-78
2021/09/11 12:43:54;;;;;;;5.85;5.10;;;27.80;57.10;;;;;;5007765;28;20231;-78
2021/09/11 12:46:37;;;;;;;4.80;4.40;;;27.80;57.30;;;;;;4990364;28;20259;-77
2021/09/11 12:49:07;;;;;;;5.53;4.50;;;27.80;57.50;;;;;;4993916;28;20579;-78
2021/09/11 12:51:34;;;;;;;5.38;4.90;;;27.70;58.30;;;;;;4990557;28;20638;-78
2021/09/11 12:54:03;;;;;;;7.30;5.18;;;27.60;58.80;;;;;;4990515;28;20223;-77
2021/09/11 12:56:30;;;;;;;7.35;5.07;;;27.40;59.40;;;;;;5005798;28;20199;-78